Time;durP1;ratioP1;P1;durP2;ratioP2;P2;SDS_P1;SDS_P2;PMS_P1;PMS_P2;Temp;Humidity;BMP_temperature;BMP_pressure;BME280_temperature;BME280_humidity;BME280_pressure;Samples;Min_cycle;Max_cycle;Signal;HPM_P1;HPM_P2
2021/11/03 00:01:51;;;;;;;22.05;11.02;;;;;;;;;;4949748;28;20057;-64
2021/11/03 00:04:17;;;;;;;22.77;11.15;;;;;;;;;;4950842;28;20028;-64
2021/11/03 00:06:42;;;;;;;17.40;9.85;;;;;;;;;;4938190;28;20382;-64
2021/11/03 00:09:07;;;;;;;15.98;9.50;;;;;;;;;;4950477;28;20418;-64
2021/11/03 00:11:32;;;;;;;21.60;9.85;;;;;;;;;;4948392;28;20031;-64
2021/11/03 00:13:58;;;;;;;23.58;12.27;;;;;;;;;;4939352;28;20119;-66
2021/11/03 00:16:23;;;;;;;24.95;13.48;;;;;;;;;;4941461;28;20039;-64
2021/11/03 00:18:48;;;;;;;24.05;11.93;;;;;;;;;;4933023;28;20023;-64
2021/11/03 00:21:13;;;;;;;24.88;12.15;;;;;;;;;;4945962;28;20047;-64
2021/11/03 00:23:39;;;;;;;31.15;15.38;;;;;;;;;;4945854;28;20023;-64
2021/11/03 00:26:04;;;;;;;32.42;16.05;;;;;;;;;;4946965;28;20045;-64
2021/11/03 00:28:29;;;;;;;24.65;12.95;;;;;;;;;;4940831;29;20058;-65
2021/11/03 00:30:55;;;;;;;27.50;14.05;;;;;;;;;;4944351;28;20067;-64
2021/11/03 00:33:21;;;;;;;20.25;10.82;;;;;;;;;;4941687;28;20114;-64
2021/11/03 00:35:46;;;;;;;21.73;11.30;;;;;;;;;;4941755;28;20051;-63
2021/11/03 00:38:11;;;;;;;19.00;10.10;;;;;;;;;;4950838;28;20110;-64
2021/11/03 00:40:36;;;;;;;19.58;10.85;;;;;;;;;;4941020;28;20043;-64
2021/11/03 00:43:02;;;;;;;16.42;9.73;;;;;;;;;;4945420;28;20027;-64
2021/11/03 00:45:27;;;;;;;19.30;10.35;;;;;;;;;;4940443;28;20043;-64
2021/11/03 00:47:52;;;;;;;18.13;10.07;;;;;;;;;;4943023;29;20092;-64
2021/11/03 00:50:18;;;;;;;25.83;11.13;;;;;;;;;;4959244;28;20038;-65
2021/11/03 00:52:43;;;;;;;24.15;13.02;;;;;;;;;;4941621;28;20023;-64
2021/11/03 00:55:08;;;;;;;25.02;12.75;;;;;;;;;;4940619;28;20461;-63
2021/11/03 00:57:34;;;;;;;25.17;13.27;;;;;;;;;;4947099;28;20035;-64
2021/11/03 00:59:59;;;;;;;27.60;13.30;;;;;;;;;;4947239;28;20027;-63
2021/11/03 01:02:24;;;;;;;27.90;12.88;;;;;;;;;;4949625;28;20042;-64
2021/11/03 01:04:49;;;;;;;28.00;15.07;;;;;;;;;;4947434;28;20027;-64
2021/11/03 01:07:15;;;;;;;29.13;15.77;;;;;;;;;;4955043;28;20034;-64
2021/11/03 01:09:40;;;;;;;26.30;14.75;;;;;;;;;;4947549;28;20367;-64
2021/11/03 01:12:06;;;;;;;36.63;14.95;;;;;;;;;;4943590;28;20035;-64
2021/11/03 01:14:31;;;;;;;28.90;13.93;;;;;;;;;;4947140;28;20453;-64
2021/11/03 01:16:56;;;;;;;43.67;17.98;;;;;;;;;;4939641;28;20050;-64
2021/11/03 01:19:21;;;;;;;35.03;18.35;;;;;;;;;;4945437;29;20031;-64
2021/11/03 01:21:47;;;;;;;40.42;17.85;;;;;;;;;;4941593;28;20035;-63
2021/11/03 01:24:12;;;;;;;44.42;18.50;;;;;;;;;;4947005;29;20037;-63
2021/11/03 01:26:37;;;;;;;46.05;20.10;;;;;;;;;;4949883;28;20066;-65
2021/11/03 01:29:03;;;;;;;45.35;21.58;;;;;;;;;;4945400;28;20505;-63
2021/11/03 01:31:28;;;;;;;52.50;21.05;;;;;;;;;;4946425;28;20118;-65
2021/11/03 01:33:56;;;;;;;51.03;22.25;;;;;;;;;;4938503;28;20049;-63
2021/11/03 01:36:21;;;;;;;59.70;24.25;;;;;;;;;;4952451;28;20449;-63
2021/11/03 01:38:46;;;;;;;54.28;22.58;;;;;;;;;;4949201;28;20590;-63
2021/11/03 01:41:11;;;;;;;54.92;22.10;;;;;;;;;;4947279;28;20967;-63
2021/11/03 01:43:37;;;;;;;40.60;20.02;;;;;;;;;;4946513;29;20035;-63
2021/11/03 01:46:22;;;;;;;41.63;19.83;;;;;;;;;;4942513;28;20087;-63
2021/11/03 01:48:48;;;;;;;42.80;17.83;;;;;;;;;;4939330;29;20027;-63
2021/11/03 01:51:18;;;;;;;36.50;17.48;;;;;;;;;;4932472;28;20043;-63
2021/11/03 01:53:43;;;;;;;38.80;17.42;;;;;;;;;;4940128;29;20034;-63
2021/11/03 01:56:09;;;;;;;22.52;12.18;;;;;;;;;;4947156;28;20043;-65
2021/11/03 01:58:55;;;;;;;10.80;7.22;;;;;;;;;;4956148;28;20031;-64
2021/11/03 02:01:20;;;;;;;25.20;10.05;;;;;;;;;;4946243;28;20078;-63
2021/11/03 02:03:46;;;;;;;23.33;9.48;;;;;;;;;;4947612;28;20063;-64
2021/11/03 02:06:18;;;;;;;56.40;12.52;;;;;;;;;;4948625;28;20035;-63
2021/11/03 02:08:43;;;;;;;31.23;13.32;;;;;;;;;;4949153;28;20035;-63
2021/11/03 02:11:08;;;;;;;32.15;13.80;;;;;;;;;;4947193;28;20503;-63
2021/11/03 02:13:34;;;;;;;27.02;12.70;;;;;;;;;;4949153;28;20131;-63
2021/11/03 02:16:00;;;;;;;43.95;13.13;;;;;;;;;;4947055;28;20137;-63
2021/11/03 02:18:25;;;;;;;36.13;12.85;;;;;;;;;;4944188;28;20023;-63
2021/11/03 02:20:51;;;;;;;24.33;11.52;;;;;;;;;;4942154;28;20052;-64
2021/11/03 02:23:16;;;;;;;38.60;13.27;;;;;;;;;;4942817;29;20060;-64
2021/11/03 02:26:00;;;;;;;35.83;11.63;;;;;;;;;;4947895;28;20027;-64
2021/11/03 02:28:25;;;;;;;68.88;13.48;;;;;;;;;;4943724;28;20079;-64
2021/11/03 02:30:50;;;;;;;40.35;14.20;;;;;;;;;;4963180;28;20043;-64
2021/11/03 02:33:19;;;;;;;74.30;15.73;;;;;;;;;;4956891;28;20034;-65
2021/11/03 02:35:49;;;;;;;43.42;14.07;;;;;;;;;;4942626;28;20126;-64
2021/11/03 02:38:24;;;;;;;52.35;15.15;;;;;;;;;;4947535;28;20023;-63
2021/11/03 02:40:51;;;;;;;67.70;14.55;;;;;;;;;;4942365;28;20039;-65
2021/11/03 02:43:23;;;;;;;68.25;15.02;;;;;;;;;;4943416;28;20036;-63
2021/11/03 02:45:54;;;;;;;70.40;13.90;;;;;;;;;;4946885;28;20062;-63
2021/11/03 02:48:20;;;;;;;61.80;13.02;;;;;;;;;;4955124;28;20126;-63
2021/11/03 02:50:52;;;;;;;43.72;13.27;;;;;;;;;;4948304;28;20062;-63
2021/11/03 02:53:17;;;;;;;37.53;13.80;;;;;;;;;;4948696;28;20016;-63
2021/11/03 02:55:43;;;;;;;56.70;14.02;;;;;;;;;;4942096;28;20043;-64
2021/11/03 02:58:08;;;;;;;31.13;13.23;;;;;;;;;;4940666;28;20042;-65
2021/11/03 03:00:33;;;;;;;51.45;14.00;;;;;;;;;;4948504;28;20497;-66
2021/11/03 03:02:59;;;;;;;51.75;13.55;;;;;;;;;;4938857;28;20466;-65
2021/11/03 03:05:24;;;;;;;55.70;14.48;;;;;;;;;;4942170;28;20127;-64
2021/11/03 03:07:50;;;;;;;49.40;13.05;;;;;;;;;;4947876;28;20008;-64
2021/11/03 03:10:16;;;;;;;41.17;14.52;;;;;;;;;;4943168;28;20119;-65
2021/11/03 03:12:41;;;;;;;32.80;13.98;;;;;;;;;;4947800;28;20043;-65
2021/11/03 03:15:06;;;;;;;35.42;12.48;;;;;;;;;;4943482;28;20564;-65
2021/11/03 03:17:32;;;;;;;36.35;12.32;;;;;;;;;;4942955;28;20051;-64
2021/11/03 03:19:57;;;;;;;29.58;13.20;;;;;;;;;;4944392;28;20035;-65
2021/11/03 03:22:22;;;;;;;25.00;12.50;;;;;;;;;;4943458;28;20028;-64
2021/11/03 03:24:47;;;;;;;26.63;13.82;;;;;;;;;;4947568;28;20028;-65
2021/11/03 03:27:13;;;;;;;28.80;14.35;;;;;;;;;;4947464;28;20074;-65
2021/11/03 03:29:38;;;;;;;32.63;15.35;;;;;;;;;;4945918;28;20026;-65
2021/11/03 03:32:03;;;;;;;29.50;15.02;;;;;;;;;;4947242;28;20039;-64
2021/11/03 03:34:29;;;;;;;26.45;13.60;;;;;;;;;;4942229;28;20035;-65
2021/11/03 03:36:54;;;;;;;24.30;12.88;;;;;;;;;;4936723;28;20048;-64
2021/11/03 03:39:20;;;;;;;25.33;12.43;;;;;;;;;;4942777;28;20110;-64
2021/11/03 03:41:47;;;;;;;23.05;12.38;;;;;;;;;;4941541;28;20047;-64
2021/11/03 03:44:12;;;;;;;22.17;11.45;;;;;;;;;;4960157;28;20537;-65
2021/11/03 03:46:38;;;;;;;25.00;11.45;;;;;;;;;;4944962;28;20031;-64
2021/11/03 03:49:03;;;;;;;25.45;12.60;;;;;;;;;;4958552;28;20058;-62
2021/11/03 03:51:28;;;;;;;25.13;12.13;;;;;;;;;;4942979;28;20047;-65
2021/11/03 03:53:53;;;;;;;22.27;11.60;;;;;;;;;;4945627;28;20433;-66
2021/11/03 03:56:19;;;;;;;23.65;11.73;;;;;;;;;;4942469;28;20574;-65
2021/11/03 03:58:44;;;;;;;20.92;11.38;;;;;;;;;;4946111;28;20054;-63
2021/11/03 04:01:10;;;;;;;22.08;11.55;;;;;;;;;;4949217;28;20186;-65
2021/11/03 04:03:36;;;;;;;19.38;10.82;;;;;;;;;;4941861;28;20463;-63
2021/11/03 04:06:01;;;;;;;21.75;10.52;;;;;;;;;;4941006;28;20067;-65
2021/11/03 04:08:26;;;;;;;23.73;10.13;;;;;;;;;;4937178;28;20122;-64
2021/11/03 04:10:52;;;;;;;20.55;10.13;;;;;;;;;;4946181;28;20125;-65
2021/11/03 04:13:17;;;;;;;21.17;11.27;;;;;;;;;;4944873;28;20027;-65
2021/11/03 04:15:42;;;;;;;20.48;11.35;;;;;;;;;;4945230;28;20147;-63
2021/11/03 04:18:07;;;;;;;20.70;10.02;;;;;;;;;;4943715;29;20031;-65
2021/11/03 04:20:33;;;;;;;22.38;11.70;;;;;;;;;;4945020;28;20127;-63
2021/11/03 04:22:58;;;;;;;25.25;11.45;;;;;;;;;;4944343;28;20529;-63
2021/11/03 04:25:23;;;;;;;21.77;10.23;;;;;;;;;;4942483;28;20065;-63
2021/11/03 04:27:49;;;;;;;21.23;10.23;;;;;;;;;;4946708;28;20015;-64
2021/11/03 04:30:15;;;;;;;21.20;10.23;;;;;;;;;;4958448;28;20038;-64
2021/11/03 04:32:40;;;;;;;19.85;10.20;;;;;;;;;;4946879;28;20024;-63
2021/11/03 04:35:05;;;;;;;17.92;9.95;;;;;;;;;;4948794;28;20050;-64
2021/11/03 04:37:30;;;;;;;19.80;9.93;;;;;;;;;;4951013;28;20035;-64
2021/11/03 04:39:56;;;;;;;18.75;10.40;;;;;;;;;;4957363;28;20069;-64
2021/11/03 04:42:21;;;;;;;22.08;10.75;;;;;;;;;;4946239;28;20050;-64
2021/11/03 04:44:46;;;;;;;18.20;10.20;;;;;;;;;;4939537;28;20037;-64
2021/11/03 04:47:12;;;;;;;22.67;10.20;;;;;;;;;;4950644;28;20343;-64
2021/11/03 04:49:37;;;;;;;21.80;10.27;;;;;;;;;;4941024;28;20493;-65
2021/11/03 04:52:02;;;;;;;16.38;9.73;;;;;;;;;;4944432;28;20036;-65
2021/11/03 04:54:27;;;;;;;22.63;10.40;;;;;;;;;;4949381;28;20034;-66
2021/11/03 04:56:53;;;;;;;16.42;9.43;;;;;;;;;;4945202;28;20036;-66
2021/11/03 04:59:18;;;;;;;17.85;10.02;;;;;;;;;;4950393;28;20446;-66
2021/11/03 05:01:43;;;;;;;19.65;10.68;;;;;;;;;;4946015;28;20035;-66
2021/11/03 05:04:09;;;;;;;24.95;10.82;;;;;;;;;;4936595;28;20103;-66
2021/11/03 05:06:35;;;;;;;21.20;11.25;;;;;;;;;;4946040;28;20142;-66
2021/11/03 05:09:01;;;;;;;22.45;10.63;;;;;;;;;;4962162;28;20051;-66
2021/11/03 05:11:26;;;;;;;20.67;11.00;;;;;;;;;;4948945;28;20062;-65
2021/11/03 05:13:51;;;;;;;17.25;9.68;;;;;;;;;;4950054;28;20038;-66
2021/11/03 05:16:17;;;;;;;20.25;9.70;;;;;;;;;;4949623;28;20053;-65
2021/11/03 05:18:43;;;;;;;22.23;10.65;;;;;;;;;;4950573;28;20019;-66
2021/11/03 05:21:08;;;;;;;22.85;11.88;;;;;;;;;;4940156;28;20051;-65
2021/11/03 05:23:33;;;;;;;24.33;11.75;;;;;;;;;;4949192;28;20011;-66
2021/11/03 05:25:58;;;;;;;24.17;11.68;;;;;;;;;;4946703;28;20046;-66
2021/11/03 05:28:24;;;;;;;26.00;11.43;;;;;;;;;;4942275;28;20246;-65
2021/11/03 05:30:50;;;;;;;18.55;10.10;;;;;;;;;;4958067;28;20036;-65
2021/11/03 05:33:15;;;;;;;24.00;11.15;;;;;;;;;;4949288;28;20382;-66
2021/11/03 05:35:40;;;;;;;20.67;9.80;;;;;;;;;;4947252;28;20150;-66
2021/11/03 05:38:06;;;;;;;21.25;10.85;;;;;;;;;;4943280;28;20115;-66
2021/11/03 05:40:31;;;;;;;19.30;10.00;;;;;;;;;;4946175;28;20122;-67
2021/11/03 05:42:56;;;;;;;16.38;9.38;;;;;;;;;;4943687;29;20058;-66
2021/11/03 05:45:22;;;;;;;19.33;9.98;;;;;;;;;;4947969;28;20715;-67
2021/11/03 05:47:47;;;;;;;18.42;9.70;;;;;;;;;;4949560;28;20772;-67
2021/11/03 05:50:21;;;;;;;19.55;10.60;;;;;;;;;;4949176;28;20012;-66
2021/11/03 05:52:47;;;;;;;21.08;10.15;;;;;;;;;;4949980;28;20535;-66
2021/11/03 05:55:13;;;;;;;20.77;9.82;;;;;;;;;;4949880;28;20150;-67
2021/11/03 05:57:39;;;;;;;23.48;11.13;;;;;;;;;;4947470;28;20023;-67
2021/11/03 06:00:13;;;;;;;23.40;10.82;;;;;;;;;;4943863;28;20069;-67
2021/11/03 06:02:39;;;;;;;21.90;9.88;;;;;;;;;;4946047;29;20015;-65
2021/11/03 06:05:04;;;;;;;22.88;10.73;;;;;;;;;;4948926;28;20397;-65
2021/11/03 06:07:29;;;;;;;21.23;10.05;;;;;;;;;;4949272;28;20785;-66
2021/11/03 06:09:57;;;;;;;21.33;10.68;;;;;;;;;;4945743;28;20023;-65
2021/11/03 06:12:22;;;;;;;19.38;10.48;;;;;;;;;;4947590;28;20039;-65
2021/11/03 06:14:48;;;;;;;27.58;11.35;;;;;;;;;;4942153;28;20498;-65
2021/11/03 06:17:13;;;;;;;19.55;9.88;;;;;;;;;;4948298;28;20494;-65
2021/11/03 06:19:38;;;;;;;23.85;11.23;;;;;;;;;;4943919;28;20027;-65
2021/11/03 06:22:03;;;;;;;18.90;10.30;;;;;;;;;;4944938;28;20043;-65
2021/11/03 06:24:30;;;;;;;24.85;12.52;;;;;;;;;;4942768;28;20378;-65
2021/11/03 06:26:55;;;;;;;23.35;11.55;;;;;;;;;;4948331;28;20043;-65
2021/11/03 06:29:21;;;;;;;23.42;10.88;;;;;;;;;;4949575;28;20019;-67
2021/11/03 06:31:46;;;;;;;22.50;10.70;;;;;;;;;;4940295;28;20048;-65
2021/11/03 06:34:11;;;;;;;23.27;11.10;;;;;;;;;;4946050;28;20404;-65
2021/11/03 06:36:37;;;;;;;24.27;11.15;;;;;;;;;;4943496;28;20051;-65
2021/11/03 06:39:03;;;;;;;24.38;11.70;;;;;;;;;;4943861;28;20037;-66
2021/11/03 06:41:29;;;;;;;21.90;11.05;;;;;;;;;;4944019;28;20046;-65
2021/11/03 06:43:54;;;;;;;21.70;11.23;;;;;;;;;;4938554;28;20024;-65
2021/11/03 06:46:19;;;;;;;26.35;11.07;;;;;;;;;;4943285;28;20035;-65
2021/11/03 06:48:45;;;;;;;30.92;12.60;;;;;;;;;;4943863;29;20492;-65
2021/11/03 06:51:10;;;;;;;23.33;12.07;;;;;;;;;;4947647;28;20111;-65
2021/11/03 06:53:35;;;;;;;23.20;11.70;;;;;;;;;;4943493;29;20138;-66
2021/11/03 06:56:01;;;;;;;26.98;11.98;;;;;;;;;;4942806;28;20095;-66
2021/11/03 06:58:28;;;;;;;24.80;13.18;;;;;;;;;;4942069;28;20067;-67
2021/11/03 07:00:53;;;;;;;23.45;12.25;;;;;;;;;;4946573;28;20126;-67
2021/11/03 07:03:19;;;;;;;24.48;11.40;;;;;;;;;;4950284;28;20118;-67
2021/11/03 07:05:45;;;;;;;21.42;12.20;;;;;;;;;;4943760;28;20490;-66
2021/11/03 07:08:10;;;;;;;25.20;12.65;;;;;;;;;;4944046;28;20031;-66
2021/11/03 07:10:39;;;;;;;24.50;12.32;;;;;;;;;;4945810;28;20093;-66
2021/11/03 07:13:05;;;;;;;27.13;12.88;;;;;;;;;;4943140;29;20031;-67
2021/11/03 07:15:30;;;;;;;29.15;13.77;;;;;;;;;;4944546;28;20054;-67
2021/11/03 07:17:55;;;;;;;22.55;12.70;;;;;;;;;;4940110;28;20086;-67
2021/11/03 07:20:21;;;;;;;27.00;12.55;;;;;;;;;;4941206;28;20082;-67
2021/11/03 07:22:46;;;;;;;23.60;12.20;;;;;;;;;;4936819;28;20046;-65
2021/11/03 07:25:12;;;;;;;25.02;12.88;;;;;;;;;;4946869;28;20058;-65
2021/11/03 07:27:37;;;;;;;24.77;13.10;;;;;;;;;;4941309;28;20028;-64
2021/11/03 07:30:03;;;;;;;23.95;13.15;;;;;;;;;;4943564;28;20079;-67
2021/11/03 07:32:28;;;;;;;30.83;14.55;;;;;;;;;;4937625;29;20057;-67
2021/11/03 07:34:53;;;;;;;35.17;16.35;;;;;;;;;;4940078;28;20078;-66
2021/11/03 07:37:19;;;;;;;26.85;13.95;;;;;;;;;;4947155;28;20063;-66
2021/11/03 07:39:44;;;;;;;34.25;17.20;;;;;;;;;;4942623;29;20066;-66
2021/11/03 07:42:09;;;;;;;35.15;17.27;;;;;;;;;;4942079;28;20138;-66
2021/11/03 07:44:34;;;;;;;33.50;16.75;;;;;;;;;;4953084;28;20102;-65
2021/11/03 07:46:59;;;;;;;41.17;19.08;;;;;;;;;;4948733;28;20126;-65
2021/11/03 07:49:25;;;;;;;34.78;16.15;;;;;;;;;;4947502;28;20030;-66
2021/11/03 07:51:50;;;;;;;37.88;18.25;;;;;;;;;;4940991;28;20039;-66
2021/11/03 07:54:15;;;;;;;30.70;14.45;;;;;;;;;;4941387;29;20223;-65
2021/11/03 07:56:41;;;;;;;37.67;18.27;;;;;;;;;;4946321;28;20031;-65
2021/11/03 07:59:06;;;;;;;30.05;16.08;;;;;;;;;;4947236;28;20114;-64
2021/11/03 08:01:31;;;;;;;32.78;15.10;;;;;;;;;;4942330;28;20036;-64
2021/11/03 08:03:57;;;;;;;39.88;17.40;;;;;;;;;;4939160;28;20317;-64
2021/11/03 08:06:22;;;;;;;32.97;16.15;;;;;;;;;;4946246;28;20047;-64
2021/11/03 08:09:02;;;;;;;39.80;18.33;;;;;;;;;;4946057;28;20020;-66
2021/11/03 08:11:29;;;;;;;32.10;15.40;;;;;;;;;;4937230;28;20034;-66
2021/11/03 08:13:55;;;;;;;33.90;15.73;;;;;;;;;;4943546;28;20358;-64
2021/11/03 08:16:20;;;;;;;33.20;16.17;;;;;;;;;;4963110;28;20047;-64
2021/11/03 08:18:45;;;;;;;30.40;15.07;;;;;;;;;;4943717;28;20030;-64
2021/11/03 08:21:11;;;;;;;27.17;13.63;;;;;;;;;;4941274;28;20121;-64
2021/11/03 08:23:36;;;;;;;28.02;15.02;;;;;;;;;;4941367;28;20027;-64
2021/11/03 08:26:02;;;;;;;25.55;12.88;;;;;;;;;;4948550;28;20178;-65
2021/11/03 08:28:27;;;;;;;27.77;14.57;;;;;;;;;;4940221;28;20353;-65
2021/11/03 08:30:53;;;;;;;29.00;14.35;;;;;;;;;;4945468;28;20529;-64
2021/11/03 08:33:19;;;;;;;29.63;14.98;;;;;;;;;;4945278;28;20035;-65
2021/11/03 08:35:46;;;;;;;26.38;13.20;;;;;;;;;;4945066;28;20039;-64
2021/11/03 08:38:12;;;;;;;31.42;14.70;;;;;;;;;;4944598;28;20390;-66
2021/11/03 08:40:37;;;;;;;30.00;15.15;;;;;;;;;;4946713;28;20039;-67
2021/11/03 08:43:04;;;;;;;30.67;14.68;;;;;;;;;;4942825;28;20031;-67
2021/11/03 08:45:30;;;;;;;33.05;14.73;;;;;;;;;;4957376;28;20043;-66
2021/11/03 08:47:55;;;;;;;31.25;14.88;;;;;;;;;;4943137;28;20413;-66
2021/11/03 08:50:22;;;;;;;33.80;14.88;;;;;;;;;;4932641;28;20116;-66
2021/11/03 08:52:47;;;;;;;32.60;16.95;;;;;;;;;;4950278;28;20023;-66
2021/11/03 08:55:13;;;;;;;28.83;15.25;;;;;;;;;;4946413;28;20407;-65
2021/11/03 08:57:38;;;;;;;32.17;15.30;;;;;;;;;;4945534;29;20030;-65
2021/11/03 09:00:08;;;;;;;27.52;13.35;;;;;;;;;;4936153;28;20035;-66
2021/11/03 09:02:33;;;;;;;27.30;14.15;;;;;;;;;;4935233;29;20113;-66
2021/11/03 09:04:58;;;;;;;22.15;13.15;;;;;;;;;;4935516;28;20073;-65
2021/11/03 09:07:24;;;;;;;25.00;13.70;;;;;;;;;;4946623;28;20039;-65
2021/11/03 09:09:49;;;;;;;27.55;14.23;;;;;;;;;;4944310;28;20027;-65
2021/11/03 09:12:20;;;;;;;21.55;12.50;;;;;;;;;;4923184;28;20031;-66
2021/11/03 09:14:45;;;;;;;23.60;13.73;;;;;;;;;;4946166;28;20134;-65
2021/11/03 09:17:11;;;;;;;34.00;13.70;;;;;;;;;;4945002;28;20086;-64
2021/11/03 09:19:36;;;;;;;24.73;13.85;;;;;;;;;;4932730;29;20241;-64
2021/11/03 09:22:02;;;;;;;24.75;13.75;;;;;;;;;;4948011;28;20035;-64
2021/11/03 09:24:27;;;;;;;25.90;15.13;;;;;;;;;;4947355;28;20251;-64
2021/11/03 09:26:52;;;;;;;23.55;13.13;;;;;;;;;;4948513;28;20367;-66
2021/11/03 09:29:18;;;;;;;29.50;14.02;;;;;;;;;;4940725;29;20027;-66
2021/11/03 09:31:44;;;;;;;30.75;15.40;;;;;;;;;;4947965;28;20039;-66
2021/11/03 09:34:09;;;;;;;28.83;14.93;;;;;;;;;;4948510;29;20027;-65
2021/11/03 09:36:35;;;;;;;29.08;15.40;;;;;;;;;;4946516;28;20047;-66
2021/11/03 09:39:01;;;;;;;29.42;15.07;;;;;;;;;;4948628;28;20019;-66
2021/11/03 09:41:27;;;;;;;29.08;15.07;;;;;;;;;;4942915;28;20043;-66
2021/11/03 09:44:00;;;;;;;24.30;13.48;;;;;;;;;;4948622;29;20121;-66
2021/11/03 09:46:38;;;;;;;24.75;14.38;;;;;;;;;;4943017;28;20071;-66
2021/11/03 09:49:20;;;;;;;25.17;12.93;;;;;;;;;;4948261;28;20023;-64
2021/11/03 09:51:50;;;;;;;27.90;13.30;;;;;;;;;;4944183;28;20101;-66
2021/11/03 09:54:17;;;;;;;24.52;12.63;;;;;;;;;;4949184;28;20029;-66
2021/11/03 09:56:44;;;;;;;22.20;12.13;;;;;;;;;;4951167;28;20042;-65
2021/11/03 09:59:28;;;;;;;20.65;11.15;;;;;;;;;;4949076;28;20532;-63
2021/11/03 10:02:09;;;;;;;23.48;12.10;;;;;;;;;;4946865;28;20066;-65
2021/11/03 10:04:42;;;;;;;20.88;11.70;;;;;;;;;;4947056;28;20573;-64
2021/11/03 10:07:11;;;;;;;20.05;10.43;;;;;;;;;;4948052;28;20043;-64
2021/11/03 10:09:37;;;;;;;16.23;10.30;;;;;;;;;;4948872;28;20525;-65
2021/11/03 10:12:05;;;;;;;18.52;10.60;;;;;;;;;;4945626;28;20158;-67
2021/11/03 10:14:30;;;;;;;20.85;11.65;;;;;;;;;;4938339;28;20063;-65
2021/11/03 10:16:55;;;;;;;19.15;11.48;;;;;;;;;;4942675;28;20042;-66
2021/11/03 10:19:40;;;;;;;22.30;11.00;;;;;;;;;;4945178;29;20356;-67
2021/11/03 10:22:18;;;;;;;20.23;10.23;;;;;;;;;;4939855;28;20179;-65
2021/11/03 10:24:47;;;;;;;13.95;8.95;;;;;;;;;;4939682;28;20627;-65
2021/11/03 10:27:16;;;;;;;20.98;9.88;;;;;;;;;;4956328;28;20043;-65
2021/11/03 10:29:48;;;;;;;12.20;8.00;;;;;;;;;;4943406;29;20023;-65
2021/11/03 10:32:29;;;;;;;14.25;9.35;;;;;;;;;;4948355;28;20035;-65
2021/11/03 10:35:00;;;;;;;14.40;7.82;;;;;;;;;;4942717;28;20039;-65
2021/11/03 10:37:25;;;;;;;;;;;;;;;;;;4949075;28;20043;-65
2021/11/03 10:39:51;;;;;;;16.88;8.52;;;;;;;;;;4945642;28;19933;-65
2021/11/03 10:42:35;;;;;;;13.50;8.35;;;;;;;;;;4947521;28;20282;-65
2021/11/03 10:45:21;;;;;;;7.05;4.97;;;;;;;;;;4947166;28;20027;-65
2021/11/03 10:47:50;;;;;;;5.95;3.72;;;;;;;;;;4946769;29;20378;-65
2021/11/03 10:50:36;;;;;;;12.23;7.65;;;;;;;;;;4941901;28;20379;-65
2021/11/03 10:53:21;;;;;;;11.65;8.13;;;;;;;;;;4944566;28;20022;-65
2021/11/03 10:55:59;;;;;;;11.95;7.13;;;;;;;;;;4937828;28;20505;-65
2021/11/03 10:58:27;;;;;;;8.40;5.43;;;;;;;;;;4946924;29;20059;-65
2021/11/03 11:00:55;;;;;;;5.90;4.00;;;;;;;;;;4945091;28;20051;-65
2021/11/03 11:03:21;;;;;;;10.57;6.72;;;;;;;;;;4948789;28;20557;-65
2021/11/03 11:05:48;;;;;;;12.50;8.73;;;;;;;;;;4946162;28;20509;-65
2021/11/03 11:08:23;;;;;;;15.65;10.35;;;;;;;;;;4945788;28;20066;-64
2021/11/03 11:10:50;;;;;;;15.13;8.73;;;;;;;;;;4945985;28;20043;-66
2021/11/03 11:13:16;;;;;;;7.43;5.18;;;;;;;;;;4946563;29;20112;-65
2021/11/03 11:15:45;;;;;;;6.97;4.93;;;;;;;;;;4944484;28;20042;-65
2021/11/03 11:18:17;;;;;;;5.93;4.28;;;;;;;;;;4946093;29;20026;-64
2021/11/03 11:20:43;;;;;;;17.67;4.82;;;;;;;;;;4944016;28;20165;-65
2021/11/03 11:23:20;;;;;;;8.10;5.78;;;;;;;;;;4943381;28;20031;-64
2021/11/03 11:26:04;;;;;;;7.68;4.95;;;;;;;;;;4946755;28;20086;-65
2021/11/03 11:28:30;;;;;;;7.85;5.13;;;;;;;;;;4939213;29;20475;-65
2021/11/03 11:30:56;;;;;;;7.03;4.22;;;;;;;;;;4935723;28;20082;-64
2021/11/03 11:33:26;;;;;;;8.48;5.95;;;;;;;;;;4940128;29;20449;-65
2021/11/03 11:36:01;;;;;;;6.60;4.70;;;;;;;;;;4942048;28;20123;-66
2021/11/03 11:38:28;;;;;;;5.90;4.75;;;;;;;;;;4942138;28;20027;-66
2021/11/03 11:41:00;;;;;;;7.82;5.47;;;;;;;;;;4941564;29;20082;-66
2021/11/03 11:43:35;;;;;;;7.80;5.45;;;;;;;;;;4934072;29;20490;-67
2021/11/03 11:46:02;;;;;;;7.57;5.97;;;;;;;;;;4941436;28;20175;-66
2021/11/03 11:48:32;;;;;;;9.07;6.95;;;;;;;;;;4942835;28;20035;-66
2021/11/03 11:51:17;;;;;;;10.75;7.90;;;;;;;;;;4940522;28;20043;-67
2021/11/03 11:53:52;;;;;;;6.78;4.60;;;;;;;;;;4939688;29;20588;-64
2021/11/03 11:56:21;;;;;;;7.82;5.13;;;;;;;;;;4949404;28;20070;-64
2021/11/03 11:58:53;;;;;;;13.52;9.57;;;;;;;;;;4944478;28;20035;-64
2021/11/03 12:01:19;;;;;;;8.35;6.10;;;;;;;;;;4945782;28;20060;-66
2021/11/03 12:04:05;;;;;;;13.48;8.65;;;;;;;;;;4942089;28;20027;-64
2021/11/03 12:06:37;;;;;;;11.63;8.23;;;;;;;;;;4919363;29;20134;-64
2021/11/03 12:09:17;;;;;;;11.50;8.27;;;;;;;;;;4938388;28;20027;-65
2021/11/03 12:12:12;;;;;;;10.35;7.75;;;;;;;;;;4939658;28;20039;-65
2021/11/03 12:14:41;;;;;;;16.50;9.18;;;;;;;;;;4929438;28;20051;-64
2021/11/03 12:17:09;;;;;;;15.88;9.52;;;;;;;;;;4945139;28;20043;-64
2021/11/03 12:19:40;;;;;;;18.33;9.23;;;;;;;;;;4943876;28;20055;-64
2021/11/03 12:22:10;;;;;;;12.85;8.35;;;;;;;;;;4943984;28;20625;-64
2021/11/03 12:24:35;;;;;;;15.00;7.90;;;;;;;;;;4944331;29;20034;-64
2021/11/03 12:27:16;;;;;;;12.68;8.32;;;;;;;;;;4943219;28;20038;-65
2021/11/03 12:29:41;;;;;;;14.23;8.50;;;;;;;;;;4956616;28;20031;-65
2021/11/03 12:32:15;;;;;;;11.13;7.53;;;;;;;;;;4945141;28;20470;-65
2021/11/03 12:34:41;;;;;;;12.45;9.20;;;;;;;;;;4941195;28;20035;-67
2021/11/03 12:37:07;;;;;;;11.95;8.45;;;;;;;;;;4943936;28;20047;-64
2021/11/03 12:39:32;;;;;;;13.27;8.30;;;;;;;;;;4939942;28;20470;-64
2021/11/03 12:42:02;;;;;;;11.77;7.90;;;;;;;;;;4940600;28;20091;-64
2021/11/03 12:44:29;;;;;;;11.70;8.15;;;;;;;;;;4935459;29;20031;-64
2021/11/03 12:46:58;;;;;;;13.55;7.28;;;;;;;;;;4948254;28;20050;-66
2021/11/03 12:49:24;;;;;;;10.65;7.20;;;;;;;;;;4948068;28;20031;-65
2021/11/03 12:51:50;;;;;;;12.52;8.23;;;;;;;;;;4934737;29;20040;-65
2021/11/03 12:54:20;;;;;;;12.25;8.43;;;;;;;;;;4937449;29;20039;-65
2021/11/03 12:56:53;;;;;;;11.80;8.38;;;;;;;;;;4939876;28;20043;-66
2021/11/03 12:59:19;;;;;;;12.38;7.95;;;;;;;;;;4950615;28;20474;-67
2021/11/03 13:01:46;;;;;;;17.00;8.18;;;;;;;;;;4938815;28;20035;-66
2021/11/03 13:04:15;;;;;;;12.50;7.93;;;;;;;;;;4941202;28;20054;-66
2021/11/03 13:06:43;;;;;;;14.87;8.80;;;;;;;;;;4945780;28;20049;-65
2021/11/03 13:09:28;;;;;;;12.23;8.73;;;;;;;;;;4942619;28;20282;-66
2021/11/03 13:11:53;;;;;;;12.15;7.57;;;;;;;;;;4941254;28;20071;-67
2021/11/03 13:14:22;;;;;;;12.60;8.27;;;;;;;;;;4944569;28;20436;-67
2021/11/03 13:16:48;;;;;;;11.20;7.90;;;;;;;;;;4933931;28;20694;-66
2021/11/03 13:19:33;;;;;;;16.33;7.95;;;;;;;;;;4952602;28;20553;-65
2021/11/03 13:21:59;;;;;;;11.45;7.60;;;;;;;;;;4942525;28;20047;-66
2021/11/03 13:24:25;;;;;;;10.98;7.88;;;;;;;;;;4950401;28;20462;-66
2021/11/03 13:26:51;;;;;;;15.02;7.82;;;;;;;;;;4951173;28;20113;-66
2021/11/03 13:29:23;;;;;;;11.93;8.27;;;;;;;;;;4949814;28;20103;-66
2021/11/03 13:32:21;;;;;;;12.55;7.80;;;;;;;;;;4943786;28;20035;-65
2021/11/03 13:35:04;;;;;;;11.45;7.80;;;;;;;;;;4945401;28;20424;-64
2021/11/03 13:37:30;;;;;;;10.90;7.90;;;;;;;;;;4954561;28;20031;-67
2021/11/03 13:39:55;;;;;;;22.25;8.57;;;;;;;;;;4946557;28;20312;-64
2021/11/03 13:42:34;;;;;;;17.77;8.68;;;;;;;;;;4948212;28;20051;-65
2021/11/03 13:45:04;;;;;;;14.43;8.52;;;;;;;;;;4941857;29;20477;-65
2021/11/03 13:47:31;;;;;;;15.02;9.32;;;;;;;;;;4946046;29;20123;-65
2021/11/03 13:50:08;;;;;;;13.02;8.00;;;;;;;;;;4939351;29;20545;-65
2021/11/03 13:52:34;;;;;;;17.85;8.48;;;;;;;;;;4942482;28;20043;-65
2021/11/03 13:54:59;;;;;;;17.30;9.18;;;;;;;;;;4946653;28;20564;-65
2021/11/03 13:57:34;;;;;;;12.23;8.45;;;;;;;;;;4948300;28;20035;-65
2021/11/03 14:00:18;;;;;;;14.88;8.75;;;;;;;;;;4948684;28;20078;-66
2021/11/03 14:02:44;;;;;;;13.27;7.80;;;;;;;;;;4954136;28;20106;-66
2021/11/03 14:05:27;;;;;;;13.15;9.25;;;;;;;;;;4930807;28;20030;-66
2021/11/03 14:07:53;;;;;;;10.02;7.32;;;;;;;;;;4952786;28;20020;-66
2021/11/03 14:10:18;;;;;;;15.73;9.45;;;;;;;;;;4943080;28;20026;-66
2021/11/03 14:12:43;;;;;;;17.98;9.52;;;;;;;;;;4953460;28;20015;-66
2021/11/03 14:15:08;;;;;;;15.68;10.30;;;;;;;;;;4945250;28;20102;-66
2021/11/03 14:17:41;;;;;;;15.93;8.98;;;;;;;;;;4946304;29;20042;-66
2021/11/03 14:20:25;;;;;;;15.40;9.38;;;;;;;;;;4944319;28;20474;-66
2021/11/03 14:22:50;;;;;;;17.55;9.35;;;;;;;;;;4945546;29;20165;-66
2021/11/03 14:25:16;;;;;;;11.82;8.30;;;;;;;;;;4947793;28;20216;-65